sensor_id;sensor_type;location;lat;lon;timestamp;P1;durP1;ratioP1;P2;durP2;ratioP2
56343;SDS011;42245;42.058;24.700;2022-09-09T00:02:23;8.95;;;6.13;;
56343;SDS011;42245;42.058;24.700;2022-09-09T00:04:59;7.75;;;5.90;;
56343;SDS011;42245;42.058;24.700;2022-09-09T00:07:50;7.50;;;6.15;;
56343;SDS011;42245;42.058;24.700;2022-09-09T00:12:53;7.35;;;6.65;;
56343;SDS011;42245;42.058;24.700;2022-09-09T00:15:24;9.18;;;6.38;;
56343;SDS011;42245;42.058;24.700;2022-09-09T00:23:27;7.53;;;6.60;;
56343;SDS011;42245;42.058;24.700;2022-09-09T00:28:24;9.68;;;6.00;;
56343;SDS011;42245;42.058;24.700;2022-09-09T00:30:52;8.88;;;6.03;;
56343;SDS011;42245;42.058;24.700;2022-09-09T00:33:19;10.73;;;6.45;;
56343;SDS011;42245;42.058;24.700;2022-09-09T00:35:48;7.65;;;6.32;;
56343;SDS011;42245;42.058;24.700;2022-09-09T00:38:24;8.73;;;6.03;;
56343;SDS011;42245;42.058;24.700;2022-09-09T00:41:04;11.18;;;6.25;;
56343;SDS011;42245;42.058;24.700;2022-09-09T00:43:35;8.65;;;6.45;;
56343;SDS011;42245;42.058;24.700;2022-09-09T00:55:07;7.78;;;6.95;;
56343;SDS011;42245;42.058;24.700;2022-09-09T00:57:52;7.25;;;6.38;;
56343;SDS011;42245;42.058;24.700;2022-09-09T01:07:54;7.97;;;7.10;;
56343;SDS011;42245;42.058;24.700;2022-09-09T01:10:53;7.78;;;7.07;;
56343;SDS011;42245;42.058;24.700;2022-09-09T01:13:30;7.70;;;7.00;;
56343;SDS011;42245;42.058;24.700;2022-09-09T01:15:59;7.88;;;6.80;;
56343;SDS011;42245;42.058;24.700;2022-09-09T01:18:27;10.70;;;6.70;;
56343;SDS011;42245;42.058;24.700;2022-09-09T01:26:48;10.13;;;7.32;;
56343;SDS011;42245;42.058;24.700;2022-09-09T01:29:17;11.70;;;7.32;;
56343;SDS011;42245;42.058;24.700;2022-09-09T01:31:57;9.98;;;7.43;;
56343;SDS011;42245;42.058;24.700;2022-09-09T01:34:28;9.00;;;7.78;;
56343;SDS011;42245;42.058;24.700;2022-09-09T01:39:35;8.45;;;7.57;;
56343;SDS011;42245;42.058;24.700;2022-09-09T01:42:02;11.73;;;7.63;;
56343;SDS011;42245;42.058;24.700;2022-09-09T01:44:29;10.43;;;7.53;;
56343;SDS011;42245;42.058;24.700;2022-09-09T01:46:55;10.45;;;8.25;;
56343;SDS011;42245;42.058;24.700;2022-09-09T01:49:20;9.27;;;8.25;;
56343;SDS011;42245;42.058;24.700;2022-09-09T01:51:46;9.82;;;8.60;;
56343;SDS011;42245;42.058;24.700;2022-09-09T01:54:15;9.43;;;8.43;;
56343;SDS011;42245;42.058;24.700;2022-09-09T01:59:09;9.93;;;8.52;;
56343;SDS011;42245;42.058;24.700;2022-09-09T02:04:36;9.02;;;8.05;;
56343;SDS011;42245;42.058;24.700;2022-09-09T02:07:51;9.27;;;8.20;;
56343;SDS011;42245;42.058;24.700;2022-09-09T02:09:58;8.93;;;7.93;;
56343;SDS011;42245;42.058;24.700;2022-09-09T02:12:28;10.93;;;8.65;;
56343;SDS011;42245;42.058;24.700;2022-09-09T02:14:56;10.32;;;8.73;;
56343;SDS011;42245;42.058;24.700;2022-09-09T02:17:30;11.20;;;9.13;;
56343;SDS011;42245;42.058;24.700;2022-09-09T02:19:59;11.60;;;9.15;;
56343;SDS011;42245;42.058;24.700;2022-09-09T02:22:29;12.27;;;8.63;;
56343;SDS011;42245;42.058;24.700;2022-09-09T02:24:56;11.15;;;8.68;;
56343;SDS011;42245;42.058;24.700;2022-09-09T02:27:23;13.43;;;9.07;;
56343;SDS011;42245;42.058;24.700;2022-09-09T02:29:49;9.98;;;8.32;;
56343;SDS011;42245;42.058;24.700;2022-09-09T02:32:16;12.00;;;8.93;;
56343;SDS011;42245;42.058;24.700;2022-09-09T02:34:47;14.80;;;8.85;;
56343;SDS011;42245;42.058;24.700;2022-09-09T02:37:17;12.43;;;9.10;;
56343;SDS011;42245;42.058;24.700;2022-09-09T02:39:43;9.68;;;8.68;;
56343;SDS011;42245;42.058;24.700;2022-09-09T02:42:09;10.68;;;9.15;;
56343;SDS011;42245;42.058;24.700;2022-09-09T02:44:34;12.10;;;8.68;;
56343;SDS011;42245;42.058;24.700;2022-09-09T03:04:27;12.60;;;9.25;;
56343;SDS011;42245;42.058;24.700;2022-09-09T03:06:53;15.50;;;9.35;;
56343;SDS011;42245;42.058;24.700;2022-09-09T03:09:18;12.15;;;9.07;;
56343;SDS011;42245;42.058;24.700;2022-09-09T03:11:44;13.05;;;9.82;;
56343;SDS011;42245;42.058;24.700;2022-09-09T03:14:09;10.40;;;9.10;;
56343;SDS011;42245;42.058;24.700;2022-09-09T03:16:36;12.38;;;9.25;;
56343;SDS011;42245;42.058;24.700;2022-09-09T03:19:01;11.25;;;8.98;;
56343;SDS011;42245;42.058;24.700;2022-09-09T03:21:27;11.02;;;9.60;;
56343;SDS011;42245;42.058;24.700;2022-09-09T03:23:52;12.05;;;9.88;;
56343;SDS011;42245;42.058;24.700;2022-09-09T03:26:18;18.08;;;10.57;;
56343;SDS011;42245;42.058;24.700;2022-09-09T03:28:44;13.75;;;10.43;;
56343;SDS011;42245;42.058;24.700;2022-09-09T03:31:10;12.60;;;10.30;;
56343;SDS011;42245;42.058;24.700;2022-09-09T03:33:38;16.00;;;10.55;;
56343;SDS011;42245;42.058;24.700;2022-09-09T03:36:06;17.40;;;10.40;;
56343;SDS011;42245;42.058;24.700;2022-09-09T03:38:33;14.95;;;10.45;;
56343;SDS011;42245;42.058;24.700;2022-09-09T03:40:59;12.98;;;10.32;;
56343;SDS011;42245;42.058;24.700;2022-09-09T03:43:26;15.38;;;10.82;;
56343;SDS011;42245;42.058;24.700;2022-09-09T03:45:52;13.50;;;10.65;;
56343;SDS011;42245;42.058;24.700;2022-09-09T03:48:18;15.80;;;11.30;;
56343;SDS011;42245;42.058;24.700;2022-09-09T03:50:45;13.50;;;11.27;;
56343;SDS011;42245;42.058;24.700;2022-09-09T03:53:14;15.23;;;12.05;;
56343;SDS011;42245;42.058;24.700;2022-09-09T03:55:43;16.60;;;12.70;;
56343;SDS011;42245;42.058;24.700;2022-09-09T03:58:13;16.83;;;11.50;;
56343;SDS011;42245;42.058;24.700;2022-09-09T04:00:39;16.63;;;10.02;;
56343;SDS011;42245;42.058;24.700;2022-09-09T04:03:07;14.40;;;11.13;;
56343;SDS011;42245;42.058;24.700;2022-09-09T04:05:34;13.38;;;10.63;;
56343;SDS011;42245;42.058;24.700;2022-09-09T04:07:59;15.52;;;11.23;;
56343;SDS011;42245;42.058;24.700;2022-09-09T04:10:25;12.77;;;10.13;;
56343;SDS011;42245;42.058;24.700;2022-09-09T04:12:50;12.07;;;10.88;;
56343;SDS011;42245;42.058;24.700;2022-09-09T04:15:15;12.15;;;10.63;;
56343;SDS011;42245;42.058;24.700;2022-09-09T04:17:43;13.27;;;10.35;;
56343;SDS011;42245;42.058;24.700;2022-09-09T04:20:08;17.40;;;11.57;;
56343;SDS011;42245;42.058;24.700;2022-09-09T04:22:37;17.08;;;12.43;;
56343;SDS011;42245;42.058;24.700;2022-09-09T04:25:04;16.08;;;11.43;;
56343;SDS011;42245;42.058;24.700;2022-09-09T04:27:33;13.57;;;10.68;;
56343;SDS011;42245;42.058;24.700;2022-09-09T04:29:58;14.27;;;10.93;;
56343;SDS011;42245;42.058;24.700;2022-09-09T04:32:24;13.30;;;11.00;;
56343;SDS011;42245;42.058;24.700;2022-09-09T04:34:52;14.30;;;11.02;;
56343;SDS011;42245;42.058;24.700;2022-09-09T04:37:17;11.88;;;10.57;;
56343;SDS011;42245;42.058;24.700;2022-09-09T04:39:43;12.30;;;10.32;;
56343;SDS011;42245;42.058;24.700;2022-09-09T04:42:08;12.73;;;10.25;;
56343;SDS011;42245;42.058;24.700;2022-09-09T04:44:33;12.30;;;11.00;;
56343;SDS011;42245;42.058;24.700;2022-09-09T04:46:59;14.95;;;11.52;;
56343;SDS011;42245;42.058;24.700;2022-09-09T04:49:24;14.68;;;11.35;;
56343;SDS011;42245;42.058;24.700;2022-09-09T04:51:51;14.00;;;10.80;;
56343;SDS011;42245;42.058;24.700;2022-09-09T04:54:16;16.33;;;11.40;;
56343;SDS011;42245;42.058;24.700;2022-09-09T04:56:42;13.00;;;10.10;;
56343;SDS011;42245;42.058;24.700;2022-09-09T04:59:08;15.45;;;10.40;;
56343;SDS011;42245;42.058;24.700;2022-09-09T05:01:34;14.70;;;10.43;;
56343;SDS011;42245;42.058;24.700;2022-09-09T05:04:01;17.00;;;10.60;;
56343;SDS011;42245;42.058;24.700;2022-09-09T05:06:28;12.77;;;9.57;;
56343;SDS011;42245;42.058;24.700;2022-09-09T05:08:56;13.98;;;9.63;;
56343;SDS011;42245;42.058;24.700;2022-09-09T05:11:26;12.30;;;8.82;;
56343;SDS011;42245;42.058;24.700;2022-09-09T05:13:53;14.55;;;10.35;;
56343;SDS011;42245;42.058;24.700;2022-09-09T05:16:19;12.82;;;9.80;;
56343;SDS011;42245;42.058;24.700;2022-09-09T05:18:45;11.35;;;9.35;;
56343;SDS011;42245;42.058;24.700;2022-09-09T05:21:12;11.75;;;9.35;;
56343;SDS011;42245;42.058;24.700;2022-09-09T05:23:38;10.35;;;9.23;;
56343;SDS011;42245;42.058;24.700;2022-09-09T05:26:04;9.95;;;8.55;;
56343;SDS011;42245;42.058;24.700;2022-09-09T05:28:30;10.60;;;8.60;;
56343;SDS011;42245;42.058;24.700;2022-09-09T05:31:00;11.15;;;8.13;;
56343;SDS011;42245;42.058;24.700;2022-09-09T05:33:29;9.75;;;8.30;;
56343;SDS011;42245;42.058;24.700;2022-09-09T05:35:56;9.82;;;8.45;;
56343;SDS011;42245;42.058;24.700;2022-09-09T05:38:22;13.77;;;8.18;;
56343;SDS011;42245;42.058;24.700;2022-09-09T05:40:50;10.90;;;7.90;;
56343;SDS011;42245;42.058;24.700;2022-09-09T05:43:17;14.70;;;9.25;;
56343;SDS011;42245;42.058;24.700;2022-09-09T05:45:43;14.77;;;10.45;;
56343;SDS011;42245;42.058;24.700;2022-09-09T05:48:08;13.75;;;9.05;;
56343;SDS011;42245;42.058;24.700;2022-09-09T05:50:34;10.73;;;8.73;;
56343;SDS011;42245;42.058;24.700;2022-09-09T05:52:59;11.50;;;8.93;;
56343;SDS011;42245;42.058;24.700;2022-09-09T05:55:25;10.68;;;9.00;;
56343;SDS011;42245;42.058;24.700;2022-09-09T05:57:50;13.80;;;9.57;;
56343;SDS011;42245;42.058;24.700;2022-09-09T06:00:17;11.40;;;8.98;;
56343;SDS011;42245;42.058;24.700;2022-09-09T06:02:43;12.95;;;9.07;;
56343;SDS011;42245;42.058;24.700;2022-09-09T06:05:08;13.65;;;8.00;;
56343;SDS011;42245;42.058;24.700;2022-09-09T06:07:35;15.02;;;8.85;;
56343;SDS011;42245;42.058;24.700;2022-09-09T06:10:01;14.43;;;8.27;;
56343;SDS011;42245;42.058;24.700;2022-09-09T06:12:26;9.55;;;7.75;;
56343;SDS011;42245;42.058;24.700;2022-09-09T06:14:52;18.33;;;8.25;;
56343;SDS011;42245;42.058;24.700;2022-09-09T06:17:17;15.93;;;8.35;;
56343;SDS011;42245;42.058;24.700;2022-09-09T06:19:43;9.00;;;8.02;;
56343;SDS011;42245;42.058;24.700;2022-09-09T06:22:08;12.07;;;7.80;;
56343;SDS011;42245;42.058;24.700;2022-09-09T06:24:37;12.30;;;6.78;;
56343;SDS011;42245;42.058;24.700;2022-09-09T06:27:03;10.43;;;7.25;;
56343;SDS011;42245;42.058;24.700;2022-09-09T06:29:30;13.10;;;7.18;;
56343;SDS011;42245;42.058;24.700;2022-09-09T06:31:55;11.25;;;6.82;;
56343;SDS011;42245;42.058;24.700;2022-09-09T06:34:21;12.30;;;6.78;;
56343;SDS011;42245;42.058;24.700;2022-09-09T06:36:47;10.30;;;7.18;;
56343;SDS011;42245;42.058;24.700;2022-09-09T06:39:12;12.95;;;7.10;;
56343;SDS011;42245;42.058;24.700;2022-09-09T06:41:38;7.63;;;6.03;;
56343;SDS011;42245;42.058;24.700;2022-09-09T06:44:04;11.68;;;6.53;;
56343;SDS011;42245;42.058;24.700;2022-09-09T06:46:30;9.02;;;6.10;;
56343;SDS011;42245;42.058;24.700;2022-09-09T06:48:58;7.22;;;5.90;;
56343;SDS011;42245;42.058;24.700;2022-09-09T06:51:28;10.77;;;5.82;;
56343;SDS011;42245;42.058;24.700;2022-09-09T06:53:56;8.18;;;6.45;;
56343;SDS011;42245;42.058;24.700;2022-09-09T06:56:27;12.07;;;6.07;;
56343;SDS011;42245;42.058;24.700;2022-09-09T06:58:55;15.55;;;6.22;;
56343;SDS011;42245;42.058;24.700;2022-09-09T07:01:26;8.77;;;5.80;;
56343;SDS011;42245;42.058;24.700;2022-09-09T07:03:53;10.88;;;6.07;;
56343;SDS011;42245;42.058;24.700;2022-09-09T07:06:21;10.85;;;6.00;;
56343;SDS011;42245;42.058;24.700;2022-09-09T07:08:55;9.55;;;6.65;;
56343;SDS011;42245;42.058;24.700;2022-09-09T07:11:24;12.40;;;7.20;;
56343;SDS011;42245;42.058;24.700;2022-09-09T07:13:54;12.05;;;6.07;;
56343;SDS011;42245;42.058;24.700;2022-09-09T07:16:21;10.90;;;6.50;;
56343;SDS011;42245;42.058;24.700;2022-09-09T07:18:50;13.65;;;6.80;;
56343;SDS011;42245;42.058;24.700;2022-09-09T07:21:16;10.18;;;6.55;;
56343;SDS011;42245;42.058;24.700;2022-09-09T07:23:42;13.35;;;6.60;;
56343;SDS011;42245;42.058;24.700;2022-09-09T07:26:09;12.90;;;6.60;;
56343;SDS011;42245;42.058;24.700;2022-09-09T07:28:36;13.10;;;5.90;;
56343;SDS011;42245;42.058;24.700;2022-09-09T07:31:02;11.00;;;5.75;;
56343;SDS011;42245;42.058;24.700;2022-09-09T07:33:28;9.73;;;5.68;;
56343;SDS011;42245;42.058;24.700;2022-09-09T07:36:05;14.38;;;6.07;;
56343;SDS011;42245;42.058;24.700;2022-09-09T07:38:42;10.43;;;5.85;;
56343;SDS011;42245;42.058;24.700;2022-09-09T07:41:10;10.48;;;6.18;;
56343;SDS011;42245;42.058;24.700;2022-09-09T07:43:41;12.23;;;5.60;;
56343;SDS011;42245;42.058;24.700;2022-09-09T07:46:08;7.88;;;5.82;;
56343;SDS011;42245;42.058;24.700;2022-09-09T07:48:35;12.82;;;6.13;;
56343;SDS011;42245;42.058;24.700;2022-09-09T07:51:07;12.30;;;6.00;;
56343;SDS011;42245;42.058;24.700;2022-09-09T07:53:33;10.85;;;6.13;;
56343;SDS011;42245;42.058;24.700;2022-09-09T07:56:07;13.38;;;6.40;;
56343;SDS011;42245;42.058;24.700;2022-09-09T07:58:34;13.00;;;6.35;;
56343;SDS011;42245;42.058;24.700;2022-09-09T08:01:10;10.25;;;5.97;;
56343;SDS011;42245;42.058;24.700;2022-09-09T08:03:38;13.55;;;5.72;;
56343;SDS011;42245;42.058;24.700;2022-09-09T08:06:05;12.75;;;5.63;;
56343;SDS011;42245;42.058;24.700;2022-09-09T08:08:35;8.85;;;6.10;;
56343;SDS011;42245;42.058;24.700;2022-09-09T08:11:11;12.63;;;6.13;;
56343;SDS011;42245;42.058;24.700;2022-09-09T08:13:37;12.48;;;6.25;;
56343;SDS011;42245;42.058;24.700;2022-09-09T08:16:15;13.25;;;6.45;;
56343;SDS011;42245;42.058;24.700;2022-09-09T08:18:42;14.57;;;6.47;;
56343;SDS011;42245;42.058;24.700;2022-09-09T08:23:34;11.77;;;6.47;;
56343;SDS011;42245;42.058;24.700;2022-09-09T08:26:13;12.90;;;6.65;;
56343;SDS011;42245;42.058;24.700;2022-09-09T08:28:45;9.38;;;5.97;;
56343;SDS011;42245;42.058;24.700;2022-09-09T08:31:18;10.13;;;6.53;;
56343;SDS011;42245;42.058;24.700;2022-09-09T08:33:46;11.32;;;6.18;;
56343;SDS011;42245;42.058;24.700;2022-09-09T08:36:16;11.68;;;7.05;;
56343;SDS011;42245;42.058;24.700;2022-09-09T08:38:52;13.48;;;6.32;;
56343;SDS011;42245;42.058;24.700;2022-09-09T08:44:21;9.82;;;6.43;;
56343;SDS011;42245;42.058;24.700;2022-09-09T08:52:16;14.35;;;6.20;;
56343;SDS011;42245;42.058;24.700;2022-09-09T08:54:47;12.43;;;6.35;;
56343;SDS011;42245;42.058;24.700;2022-09-09T08:57:19;14.02;;;6.90;;
56343;SDS011;42245;42.058;24.700;2022-09-09T08:59:53;12.02;;;7.13;;
56343;SDS011;42245;42.058;24.700;2022-09-09T09:02:38;16.30;;;6.57;;
56343;SDS011;42245;42.058;24.700;2022-09-09T09:05:37;14.50;;;6.28;;
56343;SDS011;42245;42.058;24.700;2022-09-09T09:08:31;12.25;;;6.53;;
56343;SDS011;42245;42.058;24.700;2022-09-09T09:10:58;12.45;;;6.60;;
56343;SDS011;42245;42.058;24.700;2022-09-09T09:16:26;12.10;;;6.60;;
56343;SDS011;42245;42.058;24.700;2022-09-09T09:18:58;12.23;;;5.70;;
56343;SDS011;42245;42.058;24.700;2022-09-09T09:23:56;9.85;;;6.30;;
56343;SDS011;42245;42.058;24.700;2022-09-09T09:26:24;10.07;;;7.00;;
56343;SDS011;42245;42.058;24.700;2022-09-09T09:28:54;7.90;;;6.57;;
56343;SDS011;42245;42.058;24.700;2022-09-09T09:31:21;12.50;;;6.70;;
56343;SDS011;42245;42.058;24.700;2022-09-09T09:36:18;16.60;;;7.00;;
56343;SDS011;42245;42.058;24.700;2022-09-09T09:38:57;9.85;;;7.00;;
56343;SDS011;42245;42.058;24.700;2022-09-09T09:41:35;8.30;;;6.05;;
56343;SDS011;42245;42.058;24.700;2022-09-09T09:44:02;9.77;;;6.85;;
56343;SDS011;42245;42.058;24.700;2022-09-09T09:46:28;11.25;;;6.70;;
56343;SDS011;42245;42.058;24.700;2022-09-09T09:49:00;8.68;;;6.53;;
56343;SDS011;42245;42.058;24.700;2022-09-09T09:51:30;9.15;;;6.82;;
56343;SDS011;42245;42.058;24.700;2022-09-09T09:56:55;13.65;;;6.93;;
56343;SDS011;42245;42.058;24.700;2022-09-09T09:59:42;11.07;;;6.32;;
56343;SDS011;42245;42.058;24.700;2022-09-09T10:02:15;13.63;;;6.78;;
56343;SDS011;42245;42.058;24.700;2022-09-09T10:04:42;15.95;;;8.27;;
56343;SDS011;42245;42.058;24.700;2022-09-09T10:07:10;10.52;;;8.02;;
56343;SDS011;42245;42.058;24.700;2022-09-09T10:09:46;18.35;;;7.85;;
56343;SDS011;42245;42.058;24.700;2022-09-09T10:14:45;11.95;;;7.80;;
56343;SDS011;42245;42.058;24.700;2022-09-09T10:22:57;9.93;;;7.47;;
56343;SDS011;42245;42.058;24.700;2022-09-09T10:25:35;10.73;;;7.40;;
56343;SDS011;42245;42.058;24.700;2022-09-09T10:31:05;15.00;;;7.45;;
56343;SDS011;42245;42.058;24.700;2022-09-09T10:41:42;12.27;;;7.57;;
56343;SDS011;42245;42.058;24.700;2022-09-09T10:47:11;11.73;;;7.75;;
56343;SDS011;42245;42.058;24.700;2022-09-09T11:02:48;17.63;;;7.72;;
56343;SDS011;42245;42.058;24.700;2022-09-09T11:05:19;19.35;;;8.40;;
56343;SDS011;42245;42.058;24.700;2022-09-09T11:07:56;10.35;;;8.05;;
56343;SDS011;42245;42.058;24.700;2022-09-09T11:10:26;18.85;;;8.30;;
56343;SDS011;42245;42.058;24.700;2022-09-09T11:12:57;14.05;;;8.27;;
56343;SDS011;42245;42.058;24.700;2022-09-09T11:15:36;11.60;;;7.65;;
56343;SDS011;42245;42.058;24.700;2022-09-09T11:18:06;13.18;;;8.02;;
56343;SDS011;42245;42.058;24.700;2022-09-09T11:20:36;12.93;;;8.35;;
56343;SDS011;42245;42.058;24.700;2022-09-09T11:23:09;15.23;;;8.25;;
56343;SDS011;42245;42.058;24.700;2022-09-09T11:25:36;11.05;;;8.00;;
56343;SDS011;42245;42.058;24.700;2022-09-09T11:44:39;11.80;;;8.52;;
56343;SDS011;42245;42.058;24.700;2022-09-09T11:47:19;12.43;;;8.05;;
56343;SDS011;42245;42.058;24.700;2022-09-09T11:50:08;15.68;;;8.75;;
56343;SDS011;42245;42.058;24.700;2022-09-09T11:52:40;13.32;;;8.85;;
56343;SDS011;42245;42.058;24.700;2022-09-09T11:58:06;17.13;;;8.90;;
56343;SDS011;42245;42.058;24.700;2022-09-09T12:00:42;12.50;;;8.63;;
56343;SDS011;42245;42.058;24.700;2022-09-09T12:06:13;12.63;;;8.60;;
56343;SDS011;42245;42.058;24.700;2022-09-09T12:08:43;13.65;;;8.52;;
56343;SDS011;42245;42.058;24.700;2022-09-09T12:11:33;10.80;;;8.20;;
56343;SDS011;42245;42.058;24.700;2022-09-09T12:13:59;16.02;;;8.82;;
56343;SDS011;42245;42.058;24.700;2022-09-09T12:16:36;16.70;;;8.40;;
56343;SDS011;42245;42.058;24.700;2022-09-09T12:19:16;10.52;;;8.38;;
56343;SDS011;42245;42.058;24.700;2022-09-09T12:21:46;16.67;;;8.48;;
56343;SDS011;42245;42.058;24.700;2022-09-09T12:24:23;14.85;;;9.15;;
56343;SDS011;42245;42.058;24.700;2022-09-09T12:27:36;17.15;;;8.73;;
56343;SDS011;42245;42.058;24.700;2022-09-09T12:32:41;21.73;;;9.57;;
56343;SDS011;42245;42.058;24.700;2022-09-09T12:42:58;12.75;;;8.60;;
56343;SDS011;42245;42.058;24.700;2022-09-09T12:45:47;14.85;;;8.85;;
56343;SDS011;42245;42.058;24.700;2022-09-09T12:48:16;15.35;;;8.35;;
56343;SDS011;42245;42.058;24.700;2022-09-09T12:50:44;15.02;;;9.23;;
56343;SDS011;42245;42.058;24.700;2022-09-09T12:53:31;17.33;;;10.05;;
56343;SDS011;42245;42.058;24.700;2022-09-09T12:56:04;12.13;;;8.57;;
56343;SDS011;42245;42.058;24.700;2022-09-09T12:58:47;12.70;;;8.48;;
56343;SDS011;42245;42.058;24.700;2022-09-09T13:01:24;10.95;;;7.95;;
56343;SDS011;42245;42.058;24.700;2022-09-09T13:04:00;49.38;;;9.70;;
56343;SDS011;42245;42.058;24.700;2022-09-09T13:06:30;16.65;;;8.55;;
56343;SDS011;42245;42.058;24.700;2022-09-09T13:08:57;13.88;;;8.45;;
56343;SDS011;42245;42.058;24.700;2022-09-09T13:11:28;18.17;;;9.23;;
56343;SDS011;42245;42.058;24.700;2022-09-09T13:14:15;12.25;;;8.98;;
56343;SDS011;42245;42.058;24.700;2022-09-09T13:16:53;9.75;;;8.50;;
56343;SDS011;42245;42.058;24.700;2022-09-09T13:19:20;13.70;;;8.25;;
56343;SDS011;42245;42.058;24.700;2022-09-09T13:21:46;14.40;;;8.38;;
56343;SDS011;42245;42.058;24.700;2022-09-09T13:24:31;10.18;;;8.45;;
56343;SDS011;42245;42.058;24.700;2022-09-09T13:27:04;13.32;;;8.43;;
56343;SDS011;42245;42.058;24.700;2022-09-09T13:29:51;13.50;;;9.00;;
56343;SDS011;42245;42.058;24.700;2022-09-09T13:32:21;12.63;;;8.40;;
56343;SDS011;42245;42.058;24.700;2022-09-09T13:34:52;19.02;;;8.50;;
56343;SDS011;42245;42.058;24.700;2022-09-09T13:37:22;13.70;;;8.68;;
56343;SDS011;42245;42.058;24.700;2022-09-09T13:39:52;11.82;;;8.20;;
56343;SDS011;42245;42.058;24.700;2022-09-09T13:42:25;16.52;;;8.40;;
56343;SDS011;42245;42.058;24.700;2022-09-09T13:44:52;13.20;;;9.05;;
56343;SDS011;42245;42.058;24.700;2022-09-09T13:47:19;15.50;;;9.38;;
56343;SDS011;42245;42.058;24.700;2022-09-09T13:49:45;17.52;;;9.38;;
56343;SDS011;42245;42.058;24.700;2022-09-09T13:52:20;18.88;;;9.52;;
56343;SDS011;42245;42.058;24.700;2022-09-09T13:54:50;14.75;;;10.02;;
56343;SDS011;42245;42.058;24.700;2022-09-09T13:57:21;14.23;;;9.90;;
56343;SDS011;42245;42.058;24.700;2022-09-09T13:59:47;12.68;;;9.07;;
56343;SDS011;42245;42.058;24.700;2022-09-09T14:02:14;14.98;;;8.75;;
56343;SDS011;42245;42.058;24.700;2022-09-09T14:04:39;14.02;;;8.93;;
56343;SDS011;42245;42.058;24.700;2022-09-09T14:07:11;14.40;;;9.07;;
56343;SDS011;42245;42.058;24.700;2022-09-09T14:09:38;12.10;;;9.18;;
56343;SDS011;42245;42.058;24.700;2022-09-09T14:12:04;13.85;;;8.93;;
56343;SDS011;42245;42.058;24.700;2022-09-09T14:14:30;11.07;;;8.88;;
56343;SDS011;42245;42.058;24.700;2022-09-09T14:16:55;21.30;;;9.43;;
56343;SDS011;42245;42.058;24.700;2022-09-09T14:19:20;12.73;;;8.93;;
56343;SDS011;42245;42.058;24.700;2022-09-09T14:21:46;15.88;;;8.73;;
56343;SDS011;42245;42.058;24.700;2022-09-09T14:24:11;14.65;;;9.10;;
56343;SDS011;42245;42.058;24.700;2022-09-09T14:26:37;12.70;;;9.43;;
56343;SDS011;42245;42.058;24.700;2022-09-09T14:29:03;17.83;;;9.43;;
56343;SDS011;42245;42.058;24.700;2022-09-09T14:31:28;12.40;;;9.20;;
56343;SDS011;42245;42.058;24.700;2022-09-09T14:33:54;16.83;;;9.23;;
56343;SDS011;42245;42.058;24.700;2022-09-09T14:36:19;10.48;;;9.38;;
56343;SDS011;42245;42.058;24.700;2022-09-09T14:38:45;16.13;;;9.10;;
56343;SDS011;42245;42.058;24.700;2022-09-09T14:41:14;10.05;;;7.95;;
56343;SDS011;42245;42.058;24.700;2022-09-09T14:43:45;13.77;;;8.30;;
56343;SDS011;42245;42.058;24.700;2022-09-09T14:46:12;11.85;;;8.30;;
56343;SDS011;42245;42.058;24.700;2022-09-09T14:48:39;9.35;;;8.15;;
56343;SDS011;42245;42.058;24.700;2022-09-09T14:51:09;12.13;;;8.98;;
56343;SDS011;42245;42.058;24.700;2022-09-09T14:53:35;13.88;;;8.40;;
56343;SDS011;42245;42.058;24.700;2022-09-09T14:56:04;12.65;;;8.57;;
56343;SDS011;42245;42.058;24.700;2022-09-09T14:58:31;13.98;;;8.45;;
56343;SDS011;42245;42.058;24.700;2022-09-09T15:01:07;12.65;;;8.63;;
56343;SDS011;42245;42.058;24.700;2022-09-09T15:03:35;11.77;;;8.68;;
56343;SDS011;42245;42.058;24.700;2022-09-09T15:06:12;13.00;;;8.43;;
56343;SDS011;42245;42.058;24.700;2022-09-09T15:08:41;10.88;;;7.95;;
56343;SDS011;42245;42.058;24.700;2022-09-09T15:11:07;15.13;;;8.75;;
56343;SDS011;42245;42.058;24.700;2022-09-09T15:13:34;14.20;;;8.57;;
56343;SDS011;42245;42.058;24.700;2022-09-09T15:16:04;11.90;;;8.30;;
56343;SDS011;42245;42.058;24.700;2022-09-09T15:18:30;14.45;;;7.72;;
56343;SDS011;42245;42.058;24.700;2022-09-09T15:20:58;10.95;;;8.30;;
56343;SDS011;42245;42.058;24.700;2022-09-09T15:23:25;10.20;;;8.25;;
56343;SDS011;42245;42.058;24.700;2022-09-09T15:25:51;13.73;;;7.82;;
56343;SDS011;42245;42.058;24.700;2022-09-09T15:28:20;17.23;;;8.15;;
56343;SDS011;42245;42.058;24.700;2022-09-09T15:30:50;11.57;;;8.15;;
56343;SDS011;42245;42.058;24.700;2022-09-09T15:33:17;11.02;;;8.57;;
56343;SDS011;42245;42.058;24.700;2022-09-09T15:35:42;12.27;;;8.73;;
56343;SDS011;42245;42.058;24.700;2022-09-09T15:38:08;13.38;;;7.72;;
56343;SDS011;42245;42.058;24.700;2022-09-09T15:40:33;14.02;;;8.65;;
56343;SDS011;42245;42.058;24.700;2022-09-09T15:42:59;10.40;;;8.13;;
56343;SDS011;42245;42.058;24.700;2022-09-09T15:45:24;11.38;;;8.48;;
56343;SDS011;42245;42.058;24.700;2022-09-09T15:47:50;15.82;;;8.95;;
56343;SDS011;42245;42.058;24.700;2022-09-09T15:50:15;17.95;;;8.65;;
56343;SDS011;42245;42.058;24.700;2022-09-09T15:52:41;22.45;;;8.63;;
56343;SDS011;42245;42.058;24.700;2022-09-09T15:55:07;14.93;;;8.43;;
56343;SDS011;42245;42.058;24.700;2022-09-09T15:57:33;13.57;;;8.75;;
56343;SDS011;42245;42.058;24.700;2022-09-09T15:59:59;13.27;;;8.02;;
56343;SDS011;42245;42.058;24.700;2022-09-09T16:02:25;14.00;;;9.25;;
56343;SDS011;42245;42.058;24.700;2022-09-09T16:04:51;15.13;;;8.38;;
56343;SDS011;42245;42.058;24.700;2022-09-09T16:07:16;12.77;;;8.70;;
56343;SDS011;42245;42.058;24.700;2022-09-09T16:09:42;18.58;;;8.88;;
56343;SDS011;42245;42.058;24.700;2022-09-09T16:12:08;11.85;;;8.18;;
56343;SDS011;42245;42.058;24.700;2022-09-09T16:14:38;17.67;;;8.55;;
56343;SDS011;42245;42.058;24.700;2022-09-09T16:17:04;14.50;;;8.18;;
56343;SDS011;42245;42.058;24.700;2022-09-09T16:19:30;10.13;;;8.63;;
56343;SDS011;42245;42.058;24.700;2022-09-09T16:21:56;11.20;;;8.82;;
56343;SDS011;42245;42.058;24.700;2022-09-09T16:24:21;13.32;;;9.10;;
56343;SDS011;42245;42.058;24.700;2022-09-09T16:26:49;12.13;;;8.43;;
56343;SDS011;42245;42.058;24.700;2022-09-09T16:29:16;10.57;;;8.30;;
56343;SDS011;42245;42.058;24.700;2022-09-09T16:31:43;19.02;;;8.57;;
56343;SDS011;42245;42.058;24.700;2022-09-09T16:34:09;16.67;;;8.93;;
56343;SDS011;42245;42.058;24.700;2022-09-09T16:36:36;14.00;;;8.98;;
56343;SDS011;42245;42.058;24.700;2022-09-09T16:39:05;15.70;;;9.07;;
56343;SDS011;42245;42.058;24.700;2022-09-09T16:41:32;13.27;;;9.25;;
56343;SDS011;42245;42.058;24.700;2022-09-09T16:43:59;12.70;;;9.23;;
56343;SDS011;42245;42.058;24.700;2022-09-09T16:46:27;11.38;;;8.82;;
56343;SDS011;42245;42.058;24.700;2022-09-09T16:48:55;13.50;;;9.05;;
56343;SDS011;42245;42.058;24.700;2022-09-09T16:51:22;18.40;;;9.65;;
56343;SDS011;42245;42.058;24.700;2022-09-09T16:53:49;32.95;;;10.85;;
56343;SDS011;42245;42.058;24.700;2022-09-09T16:56:16;10.98;;;9.07;;
56343;SDS011;42245;42.058;24.700;2022-09-09T16:58:53;19.80;;;9.63;;
56343;SDS011;42245;42.058;24.700;2022-09-09T17:01:27;30.67;;;10.10;;
56343;SDS011;42245;42.058;24.700;2022-09-09T17:03:57;16.83;;;9.02;;